KMPZ

Mount Pleasant Municipal Airport

Mount Pleasant, Iowa, USA
METAR KMPZ 170215Z AUTO 00000KT 10SM CLR 03/M04 A2999 RMK AO2 T00251042
Observed Flight Rules
Dec-17 @ 02:15 UTC (18 minutes ago) Visual Flight Rules
Wind Visibility Clouds
Calm 10 miles
  • Clear skies
Temperatures Readings
Current 3°C / 37°F
Dewpoint -4°C / 25°F
Humidity 60%
Altimeter 29.99" Hg
Pressure 1016 hPa
Elevation 224
METAR KMPZ 170215Z AUTO 00000KT 10SM CLR 03/M04 A2999 RMK AO2 T00251042
Observed Flight Rules
Dec-17 @ 02:15 UTC
(18 minutes ago)
VFR
Wind Visibility
Calm 10 miles
Clouds
  • Clear skies
Temperature Dewpoint
3°C / 37°F -4°C / 25°F
Humidity Altimeter Pressure
60% 29.99" Hg 1016 hPa